createdAt,value
2022-10-19T00:01:03.151Z,17.81
2022-10-19T00:03:30.606Z,17.52
2022-10-19T00:05:58.065Z,17.51
2022-10-19T00:08:25.542Z,17.75
2022-10-19T00:10:53.004Z,17.75
2022-10-19T00:13:21.759Z,17.75
2022-10-19T00:15:49.285Z,17.73
2022-10-19T00:18:16.756Z,17.70
2022-10-19T00:20:44.206Z,17.71
2022-10-19T00:23:11.648Z,17.70
2022-10-19T00:25:39.074Z,17.66
2022-10-19T00:28:06.507Z,17.68
2022-10-19T00:30:38.427Z,17.68
2022-10-19T00:33:05.950Z,17.66
2022-10-19T00:35:33.400Z,17.62
2022-10-19T00:38:00.830Z,17.61
2022-10-19T00:40:28.253Z,17.62
2022-10-19T00:42:56.903Z,17.22
2022-10-19T00:45:24.371Z,17.60
2022-10-19T00:47:53.131Z,17.60
2022-10-19T00:50:20.673Z,17.60
2022-10-19T00:52:48.092Z,17.58
2022-10-19T00:55:15.510Z,17.57
2022-10-19T00:57:42.945Z,17.55
2022-10-19T01:00:11.079Z,17.58
2022-10-19T01:02:38.501Z,17.45
2022-10-19T01:05:08.222Z,17.55
2022-10-19T01:07:35.930Z,17.54
2022-10-19T01:10:03.626Z,17.53
2022-10-19T01:12:39.308Z,17.33
2022-10-19T01:15:13.521Z,17.31
2022-10-19T01:17:46.891Z,17.51
2022-10-19T01:20:48.575Z,17.35
2022-10-19T01:23:46.381Z,17.48
2022-10-19T01:26:22.361Z,17.43
2022-10-19T01:28:54.701Z,17.40
2022-10-19T01:31:25.761Z,17.35
2022-10-19T01:36:31.016Z,17.29
2022-10-19T01:39:01.097Z,17.33
2022-10-19T01:41:29.486Z,17.29
2022-10-19T01:43:59.655Z,17.24
2022-10-19T01:46:28.741Z,17.19
2022-10-19T01:48:59.532Z,17.22
2022-10-19T01:51:28.588Z,17.24
2022-10-19T01:53:57.923Z,17.01
2022-10-19T01:56:26.338Z,17.17
2022-10-19T01:58:53.856Z,17.15
2022-10-19T02:01:21.300Z,17.13
2022-10-19T02:03:50.048Z,17.15
2022-10-19T02:06:17.489Z,17.18
2022-10-19T02:08:46.008Z,16.92
2022-10-19T02:11:13.448Z,17.13
2022-10-19T02:13:40.954Z,17.26
2022-10-19T02:16:10.476Z,17.03
2022-10-19T02:18:39.633Z,17.20
2022-10-19T02:21:09.312Z,17.21
2022-10-19T02:23:36.918Z,17.15
2022-10-19T02:26:04.489Z,16.96
2022-10-19T02:28:31.946Z,17.20
2022-10-19T02:30:59.389Z,17.12
2022-10-19T02:33:26.855Z,17.11
2022-10-19T02:35:54.315Z,17.10
2022-10-19T02:38:23.501Z,16.83
2022-10-19T02:40:53.318Z,17.04
2022-10-19T02:43:22.979Z,17.16
2022-10-19T02:45:52.273Z,17.15
2022-10-19T02:48:21.246Z,17.15
2022-10-19T02:50:48.730Z,17.18
2022-10-19T02:53:16.247Z,16.80
2022-10-19T02:55:45.071Z,17.18
2022-10-19T02:58:12.508Z,17.13
2022-10-19T03:00:40.091Z,17.15
2022-10-19T03:03:07.538Z,17.15
2022-10-19T03:05:34.985Z,17.10
2022-10-19T03:08:02.404Z,17.07
2022-10-19T03:10:29.833Z,17.07
2022-10-19T03:12:59.401Z,17.02
2022-10-19T03:15:29.038Z,17.05
2022-10-19T03:17:56.946Z,17.02
2022-10-19T03:20:24.428Z,16.98
2022-10-19T03:25:24.426Z,16.96
2022-10-19T03:27:51.832Z,17.02
2022-10-19T03:30:20.602Z,17.06
2022-10-19T03:32:48.228Z,17.08
2022-10-19T03:35:15.665Z,17.07
2022-10-19T03:37:43.107Z,17.04
2022-10-19T03:40:11.045Z,17.08
2022-10-19T03:42:38.469Z,17.02
2022-10-19T03:45:06.840Z,17.02
2022-10-19T03:47:35.923Z,16.97
2022-10-19T03:50:05.648Z,16.98
2022-10-19T03:52:33.080Z,16.96
2022-10-19T03:55:00.521Z,16.98
2022-10-19T03:57:27.933Z,16.98
2022-10-19T03:59:55.358Z,16.98
2022-10-19T04:02:22.776Z,16.97
2022-10-19T04:04:51.545Z,16.95
2022-10-19T04:07:18.981Z,16.97
2022-10-19T04:09:46.533Z,16.96
2022-10-19T04:12:14.156Z,16.96
2022-10-19T04:14:56.311Z,16.94
2022-10-19T04:17:24.790Z,16.88
2022-10-19T04:19:53.559Z,16.90
2022-10-19T04:22:20.996Z,16.88
2022-10-19T04:24:48.430Z,16.90
2022-10-19T04:27:15.839Z,16.89
2022-10-19T04:29:43.272Z,16.89
2022-10-19T04:32:10.692Z,16.87
2022-10-19T04:34:40.036Z,16.77
2022-10-19T04:37:09.004Z,16.84
2022-10-19T04:39:39.377Z,16.86
2022-10-19T04:42:06.831Z,16.83
2022-10-19T04:44:34.270Z,16.83
2022-10-19T04:47:01.731Z,16.86
2022-10-19T04:49:29.187Z,16.87
2022-10-19T04:51:56.626Z,16.85
2022-10-19T04:54:25.388Z,16.86
2022-10-19T04:56:53.712Z,16.84
2022-10-19T04:59:21.163Z,16.83
2022-10-19T05:01:48.578Z,16.83
2022-10-19T05:04:16.024Z,16.77
2022-10-19T05:06:43.482Z,16.83
2022-10-19T05:09:10.972Z,16.82
2022-10-19T05:11:39.722Z,16.79
2022-10-19T05:14:07.170Z,16.74
2022-10-19T05:16:34.600Z,16.69
2022-10-19T05:19:02.031Z,16.71
2022-10-19T05:21:29.568Z,16.35
2022-10-19T05:23:57.086Z,16.72
2022-10-19T05:26:25.384Z,16.70
2022-10-19T05:28:56.547Z,16.27
2022-10-19T05:31:25.223Z,16.63
2022-10-19T05:33:52.717Z,16.69
2022-10-19T05:36:21.425Z,16.70
2022-10-19T05:38:52.510Z,16.43
2022-10-19T05:41:20.087Z,16.69
2022-10-19T05:43:47.684Z,16.67
2022-10-19T05:46:17.856Z,16.39
2022-10-19T05:48:45.224Z,16.66
2022-10-19T05:51:13.362Z,16.31
2022-10-19T05:53:40.975Z,16.64
2022-10-19T05:56:09.864Z,16.63
2022-10-19T05:58:37.290Z,16.58
2022-10-19T06:01:04.913Z,16.47
2022-10-19T06:03:33.705Z,16.46
2022-10-19T06:06:03.690Z,16.49
2022-10-19T06:08:31.225Z,16.50
2022-10-19T06:11:05.799Z,16.56
2022-10-19T06:13:33.220Z,16.59
2022-10-19T06:16:00.681Z,16.61
2022-10-19T06:18:28.138Z,16.23
2022-10-19T06:20:56.882Z,16.64
2022-10-19T06:23:24.344Z,16.68
2022-10-19T06:25:51.791Z,16.69
2022-10-19T06:28:19.289Z,16.72
2022-10-19T06:30:46.846Z,16.74
2022-10-19T06:33:14.348Z,16.73
2022-10-19T06:35:42.913Z,16.75
2022-10-19T06:38:13.713Z,16.76
2022-10-19T06:40:41.178Z,16.79
2022-10-19T06:43:08.622Z,16.80
2022-10-19T06:45:38.154Z,16.84
2022-10-19T06:48:07.672Z,16.83
2022-10-19T06:50:35.445Z,16.90
2022-10-19T06:53:02.904Z,16.74
2022-10-19T06:55:31.667Z,16.86
2022-10-19T06:58:01.506Z,16.50
2022-10-19T07:00:29.194Z,16.86
2022-10-19T07:02:56.731Z,16.86
2022-10-19T07:05:24.189Z,16.85
2022-10-19T07:07:51.654Z,16.86
2022-10-19T07:10:19.249Z,16.84
2022-10-19T07:12:47.999Z,16.86
2022-10-19T07:15:15.497Z,16.61
2022-10-19T07:17:42.926Z,16.88
2022-10-19T07:20:11.550Z,16.86
2022-10-19T07:22:39.053Z,16.90
2022-10-19T07:25:06.926Z,16.93
2022-10-19T07:27:37.715Z,16.93
2022-10-19T07:30:07.915Z,16.96
2022-10-19T07:32:35.337Z,16.93
2022-10-19T07:35:02.783Z,17.00
2022-10-19T07:37:30.234Z,17.03
2022-10-19T07:39:57.662Z,17.07
2022-10-19T07:42:25.192Z,16.92
2022-10-19T07:44:52.694Z,16.78
2022-10-19T07:47:21.509Z,16.78
2022-10-19T07:49:48.965Z,16.79
2022-10-19T07:52:17.718Z,16.79
2022-10-19T07:54:46.682Z,16.74
2022-10-19T07:57:15.077Z,16.81
2022-10-19T07:59:42.508Z,16.82
2022-10-19T08:02:12.805Z,16.84
2022-10-19T08:05:00.178Z,16.83
2022-10-19T08:07:28.464Z,16.87
2022-10-19T08:09:56.036Z,16.85
2022-10-19T08:12:23.542Z,16.85
2022-10-19T08:14:50.961Z,16.78
2022-10-19T08:17:18.395Z,16.81
2022-10-19T08:19:47.270Z,16.80
2022-10-19T08:22:14.767Z,16.78
2022-10-19T08:24:42.224Z,16.80
2022-10-19T08:27:10.028Z,16.78
2022-10-19T08:29:37.466Z,16.74
2022-10-19T08:32:05.120Z,16.70
2022-10-19T08:34:33.169Z,16.67
2022-10-19T08:37:06.819Z,16.70
2022-10-19T08:39:42.390Z,16.70
2022-10-19T08:42:13.261Z,16.71
2022-10-19T08:44:58.900Z,16.75
2022-10-19T08:47:38.154Z,16.41
2022-10-19T08:50:15.546Z,16.73
2022-10-19T08:52:44.316Z,16.73
2022-10-19T08:55:16.477Z,16.76
2022-10-19T08:57:51.378Z,16.64
2022-10-19T09:00:21.954Z,16.75
2022-10-19T09:02:55.674Z,16.77
2022-10-19T09:05:25.619Z,16.79
2022-10-19T09:07:54.761Z,16.81
2022-10-19T09:10:24.829Z,16.84
2022-10-19T09:12:58.436Z,16.49
2022-10-19T09:15:27.360Z,16.87
2022-10-19T09:17:54.791Z,16.89
2022-10-19T09:20:23.270Z,16.88
2022-10-19T09:22:55.192Z,16.41
2022-10-19T09:25:23.041Z,16.43
2022-10-19T09:27:53.708Z,16.29
2022-10-19T09:30:23.054Z,16.45
2022-10-19T09:32:52.171Z,16.49
2022-10-19T09:35:23.940Z,16.65
2022-10-19T09:37:51.371Z,16.53
2022-10-19T09:40:21.277Z,16.32
2022-10-19T09:42:56.732Z,16.76
2022-10-19T09:45:31.316Z,16.77
2022-10-19T09:48:05.696Z,16.75
2022-10-19T09:50:39.729Z,16.85
2022-10-19T09:53:07.162Z,16.87
2022-10-19T09:55:39.661Z,16.61
2022-10-19T09:58:11.442Z,16.66
2022-10-19T10:00:42.207Z,16.97
2022-10-19T10:03:22.537Z,17.00
2022-10-19T10:05:49.965Z,17.01
2022-10-19T10:08:19.354Z,17.03
2022-10-19T10:10:49.242Z,16.95
2022-10-19T10:13:17.968Z,17.11
2022-10-19T10:15:48.104Z,17.09
2022-10-19T10:18:15.726Z,17.09
2022-10-19T10:23:33.829Z,17.11
2022-10-19T10:26:02.908Z,17.12
2022-10-19T10:28:30.682Z,17.14
2022-10-19T10:31:01.414Z,16.98
2022-10-19T10:33:45.858Z,17.01
2022-10-19T10:36:13.612Z,16.98
2022-10-19T10:38:42.029Z,17.09
2022-10-19T10:41:17.494Z,17.10
2022-10-19T10:46:25.804Z,17.09
2022-10-19T10:48:54.391Z,17.09
2022-10-19T10:51:22.969Z,16.76
2022-10-19T10:53:50.410Z,17.08
2022-10-19T10:56:25.378Z,16.98
2022-10-19T10:58:57.118Z,16.76
2022-10-19T11:01:25.331Z,17.12
2022-10-19T11:03:56.548Z,17.13
2022-10-19T11:09:01.982Z,17.26
2022-10-19T11:11:33.081Z,17.25
2022-10-19T11:14:02.372Z,16.55
2022-10-19T11:16:30.894Z,17.28
2022-10-19T11:19:01.435Z,17.00
2022-10-19T11:21:32.008Z,17.02
2022-10-19T11:24:04.817Z,16.82
2022-10-19T11:26:41.555Z,17.28
2022-10-19T11:29:20.223Z,17.30
2022-10-19T11:31:49.103Z,17.34
2022-10-19T11:34:31.516Z,17.03
2022-10-19T11:37:01.894Z,17.35
2022-10-19T11:39:36.550Z,17.36
2022-10-19T11:42:09.665Z,17.07
2022-10-19T11:44:43.158Z,17.37
2022-10-19T11:47:19.002Z,17.40
2022-10-19T11:49:51.745Z,17.40
2022-10-19T11:52:21.705Z,17.41
2022-10-19T11:54:56.827Z,17.37
2022-10-19T11:57:26.657Z,17.21
2022-10-19T12:00:13.502Z,17.45
2022-10-19T12:03:18.396Z,17.33
2022-10-19T12:05:52.902Z,17.38
2022-10-19T12:08:28.291Z,17.48
2022-10-19T12:10:58.285Z,17.48
2022-10-19T12:13:37.465Z,17.10
2022-10-19T12:16:04.905Z,17.44
2022-10-19T12:18:35.041Z,17.47
2022-10-19T12:21:03.124Z,17.42
2022-10-19T12:23:32.914Z,17.41
2022-10-19T12:26:01.966Z,17.22
2022-10-19T12:28:32.808Z,17.21
2022-10-19T12:31:00.665Z,17.33
2022-10-19T12:33:30.044Z,17.26
2022-10-19T12:36:02.760Z,17.01
2022-10-19T12:38:34.698Z,17.42
2022-10-19T12:41:06.107Z,17.20
2022-10-19T12:43:39.430Z,17.40
2022-10-19T12:46:12.046Z,17.41
2022-10-19T12:48:39.871Z,17.41
2022-10-19T12:51:28.307Z,17.41
2022-10-19T12:54:07.648Z,17.39
2022-10-19T12:56:35.097Z,17.37
2022-10-19T12:59:03.842Z,16.99
2022-10-19T13:01:44.184Z,17.04
2022-10-19T13:04:12.496Z,17.22
2022-10-19T13:06:41.784Z,17.19
2022-10-19T13:09:09.955Z,17.39
2022-10-19T13:11:38.336Z,17.40
2022-10-19T13:14:08.695Z,17.08
2022-10-19T13:16:58.020Z,17.37
2022-10-19T13:19:25.577Z,16.96
2022-10-19T13:22:24.388Z,17.21
2022-10-19T13:25:33.195Z,17.20
2022-10-19T13:28:02.135Z,17.17
2022-10-19T13:31:09.332Z,17.22
2022-10-19T13:33:46.115Z,17.05
2022-10-19T13:36:13.556Z,17.28
2022-10-19T13:38:41.465Z,16.97
2022-10-19T13:41:18.038Z,17.38
2022-10-19T13:44:02.709Z,17.43
2022-10-19T13:46:41.076Z,17.48
2022-10-19T13:49:38.262Z,17.53
2022-10-19T13:52:26.876Z,17.55
2022-10-19T13:55:09.595Z,17.58
2022-10-19T13:57:50.030Z,17.59
2022-10-19T14:00:20.725Z,17.62
2022-10-19T14:03:01.912Z,17.61
2022-10-19T14:05:48.338Z,17.62
2022-10-19T14:08:24.587Z,17.71
2022-10-19T14:11:01.497Z,17.76
2022-10-19T14:13:29.122Z,17.81
2022-10-19T14:15:57.588Z,17.88
2022-10-19T14:18:27.185Z,17.96
2022-10-19T14:20:58.695Z,18.00
2022-10-19T14:23:27.575Z,18.06
2022-10-19T14:25:56.485Z,18.06
2022-10-19T14:28:23.921Z,17.76
2022-10-19T14:30:58.593Z,17.90
2022-10-19T14:33:27.516Z,18.00
2022-10-19T14:35:55.055Z,17.85
2022-10-19T14:38:25.397Z,17.95
2022-10-19T14:40:53.047Z,17.93
2022-10-19T14:43:21.870Z,17.91
2022-10-19T14:46:09.718Z,17.90
2022-10-19T14:48:39.067Z,17.87
2022-10-19T14:51:09.553Z,17.89
2022-10-19T14:53:38.782Z,17.88
2022-10-19T14:56:08.835Z,17.75
2022-10-19T14:58:37.117Z,17.81
2022-10-19T15:01:04.646Z,17.80
2022-10-19T15:03:32.093Z,17.80
2022-10-19T15:06:02.451Z,17.70
2022-10-19T15:08:34.561Z,17.53
2022-10-19T15:11:02.062Z,17.84
2022-10-19T15:13:31.742Z,17.54
2022-10-19T15:15:59.202Z,17.87
2022-10-19T15:21:18.733Z,17.91
2022-10-19T15:23:46.816Z,17.61
2022-10-19T15:26:17.529Z,17.91
2022-10-19T15:28:45.155Z,17.90
2022-10-19T15:31:18.073Z,17.57
2022-10-19T15:33:47.815Z,17.75
2022-10-19T15:36:18.268Z,17.88
2022-10-19T15:38:46.520Z,17.86
2022-10-19T15:41:18.219Z,17.85
2022-10-19T15:43:46.534Z,17.82
2022-10-19T15:46:35.188Z,17.79
2022-10-19T15:49:04.779Z,17.43
2022-10-19T15:51:43.492Z,17.72
2022-10-19T15:54:10.948Z,17.68
2022-10-19T15:56:39.049Z,17.42
2022-10-19T15:59:09.829Z,17.64
2022-10-19T16:01:37.317Z,17.59
2022-10-19T16:04:05.070Z,17.57
2022-10-19T16:06:33.311Z,17.55
2022-10-19T16:09:02.189Z,17.51
2022-10-19T16:11:29.963Z,17.50
2022-10-19T16:13:57.441Z,17.36
2022-10-19T16:16:25.968Z,17.46
2022-10-19T16:18:53.563Z,17.40
2022-10-19T16:21:21.910Z,17.24
2022-10-19T16:23:49.379Z,17.45
2022-10-19T16:26:18.209Z,17.10
2022-10-19T16:28:46.025Z,17.16
2022-10-19T16:31:13.448Z,17.38
2022-10-19T16:33:40.863Z,17.38
2022-10-19T16:36:09.094Z,17.37
2022-10-19T16:38:36.618Z,17.36
2022-10-19T16:41:04.331Z,17.04
2022-10-19T16:43:33.141Z,17.07
2022-10-19T16:46:01.582Z,17.20
2022-10-19T16:48:29.016Z,17.29
2022-10-19T16:51:18.753Z,17.30
2022-10-19T16:53:46.187Z,17.26
2022-10-19T16:56:13.905Z,17.27
2022-10-19T16:58:42.658Z,17.04
2022-10-19T17:01:10.146Z,17.24
2022-10-19T17:03:37.625Z,17.17
2022-10-19T17:06:05.418Z,17.22
2022-10-19T17:08:36.947Z,17.20
2022-10-19T17:11:13.125Z,17.02
2022-10-19T17:13:41.921Z,17.19
2022-10-19T17:16:10.066Z,17.19
2022-10-19T17:18:37.526Z,17.13
2022-10-19T17:21:09.352Z,17.10
2022-10-19T17:23:36.777Z,17.12
2022-10-19T17:26:04.409Z,17.12
2022-10-19T17:28:32.098Z,17.11
2022-10-19T17:31:05.787Z,17.11
2022-10-19T17:33:33.253Z,17.10
2022-10-19T17:36:07.936Z,17.08
2022-10-19T17:38:35.466Z,17.07
2022-10-19T17:41:04.434Z,17.06
2022-10-19T17:43:31.854Z,17.05
2022-10-19T17:46:00.129Z,16.81
2022-10-19T17:48:28.897Z,17.03
2022-10-19T17:51:00.253Z,16.68
2022-10-19T17:53:27.939Z,17.01
2022-10-19T17:55:55.574Z,16.87
2022-10-19T17:58:23.031Z,16.59
2022-10-19T18:00:54.782Z,16.94
2022-10-19T18:03:22.681Z,16.95
2022-10-19T18:05:58.591Z,16.95
2022-10-19T18:08:26.045Z,16.92
2022-10-19T18:11:00.120Z,16.63
2022-10-19T18:13:27.919Z,16.75
2022-10-19T18:15:59.852Z,16.88
2022-10-19T18:18:27.345Z,16.84
2022-10-19T18:20:54.834Z,16.79
2022-10-19T18:23:23.592Z,16.77
2022-10-19T18:25:54.309Z,16.76
2022-10-19T18:28:22.084Z,16.73
2022-10-19T18:30:49.501Z,16.69
2022-10-19T18:33:16.931Z,16.69
2022-10-19T18:35:44.398Z,16.69
2022-10-19T18:38:11.829Z,16.65
2022-10-19T18:40:40.625Z,16.64
2022-10-19T18:43:08.102Z,16.62
2022-10-19T18:45:35.542Z,16.61
2022-10-19T18:48:02.996Z,16.61
2022-10-19T18:50:30.914Z,16.61
2022-10-19T18:52:58.431Z,16.58
2022-10-19T18:55:25.872Z,16.61
2022-10-19T18:57:54.620Z,16.65
2022-10-19T19:00:22.070Z,16.63
2022-10-19T19:02:54.075Z,16.62
2022-10-19T19:05:21.756Z,16.58
2022-10-19T19:07:49.219Z,16.63
2022-10-19T19:10:16.926Z,16.62
2022-10-19T19:12:44.493Z,16.61
2022-10-19T19:15:13.344Z,16.56
2022-10-19T19:17:40.772Z,16.53
2022-10-19T19:20:09.004Z,16.30
2022-10-19T19:22:37.040Z,16.57
2022-10-19T19:25:05.138Z,16.28
2022-10-19T19:27:32.658Z,16.56
2022-10-19T19:30:03.602Z,16.44
2022-10-19T19:32:32.593Z,16.57
2022-10-19T19:35:00.219Z,16.56
2022-10-19T19:37:27.772Z,16.53
2022-10-19T19:39:55.199Z,16.50
2022-10-19T19:42:27.674Z,16.49
2022-10-19T19:44:55.360Z,16.47
2022-10-19T19:47:22.827Z,16.48
2022-10-19T19:49:51.590Z,16.44
2022-10-19T19:52:19.058Z,16.43
2022-10-19T19:54:46.530Z,16.49
2022-10-19T19:57:13.953Z,16.50
2022-10-19T19:59:41.426Z,16.49
2022-10-19T20:02:10.074Z,16.08
2022-10-19T20:04:37.753Z,16.45
2022-10-19T20:07:06.513Z,16.41
2022-10-19T20:09:35.070Z,16.44
2022-10-19T20:12:02.510Z,16.46
2022-10-19T20:14:30.150Z,16.46
2022-10-19T20:16:57.588Z,16.41
2022-10-19T20:19:25.086Z,16.36
2022-10-19T20:21:52.779Z,16.34
2022-10-19T20:24:21.541Z,16.36
2022-10-19T20:26:48.978Z,16.37
2022-10-19T20:29:16.423Z,16.31
2022-10-19T20:31:43.857Z,16.29
2022-10-19T20:34:13.463Z,16.29
2022-10-19T20:36:40.975Z,16.31
2022-10-19T20:39:08.388Z,16.35
2022-10-19T20:41:37.159Z,16.32
2022-10-19T20:44:04.672Z,16.05
2022-10-19T20:46:32.176Z,16.24
2022-10-19T20:49:00.598Z,15.93
2022-10-19T20:51:31.750Z,16.22
2022-10-19T20:54:00.195Z,16.28
2022-10-19T20:56:28.628Z,16.15
2022-10-19T20:58:57.647Z,16.28
2022-10-19T21:01:25.238Z,16.22
2022-10-19T21:03:53.759Z,15.78
2022-10-19T21:06:21.420Z,15.79
2022-10-19T21:08:49.059Z,16.12
2022-10-19T21:11:17.457Z,15.79
2022-10-19T21:13:45.286Z,16.11
2022-10-19T21:16:15.209Z,16.08
2022-10-19T21:18:43.311Z,15.71
2022-10-19T21:21:12.642Z,16.02
2022-10-19T21:23:40.134Z,16.01
2022-10-19T21:26:07.623Z,16.02
2022-10-19T21:28:35.109Z,16.04
2022-10-19T21:31:05.883Z,16.06
2022-10-19T21:33:34.657Z,16.05
2022-10-19T21:36:03.034Z,16.07
2022-10-19T21:38:30.665Z,16.06
2022-10-19T21:40:59.095Z,16.05
2022-10-19T21:43:26.626Z,16.05
2022-10-19T21:45:54.091Z,16.04
2022-10-19T21:48:21.542Z,16.02
2022-10-19T21:50:50.536Z,15.83
2022-10-19T21:53:19.346Z,16.04
2022-10-19T21:55:47.040Z,15.38
2022-10-19T21:58:14.617Z,16.02
2022-10-19T22:00:42.092Z,16.00
2022-10-19T22:03:09.851Z,16.00
2022-10-19T22:05:37.452Z,15.98
2022-10-19T22:08:06.312Z,15.96
2022-10-19T22:10:33.748Z,15.95
2022-10-19T22:13:01.765Z,15.94
2022-10-19T22:15:29.274Z,15.95
2022-10-19T22:17:56.694Z,15.94
2022-10-19T22:20:24.134Z,15.94
2022-10-19T22:22:54.226Z,15.92
2022-10-19T22:25:23.805Z,15.94
2022-10-19T22:27:51.221Z,15.89
2022-10-19T22:30:18.735Z,15.90
2022-10-19T22:32:46.183Z,15.85
2022-10-19T22:35:13.671Z,15.86
2022-10-19T22:37:41.119Z,15.86
2022-10-19T22:40:09.372Z,15.86
2022-10-19T22:42:38.401Z,15.87
2022-10-19T22:45:07.037Z,15.86
2022-10-19T22:47:34.450Z,15.82
2022-10-19T22:50:01.864Z,15.84
2022-10-19T22:52:29.280Z,15.86
2022-10-19T22:54:56.691Z,15.80
2022-10-19T22:57:24.134Z,15.73
2022-10-19T22:59:52.869Z,15.77
2022-10-19T23:02:20.298Z,15.76
2022-10-19T23:04:47.716Z,15.76
2022-10-19T23:07:15.144Z,15.79
2022-10-19T23:09:42.559Z,15.78
2022-10-19T23:12:09.989Z,15.77
2022-10-19T23:14:37.401Z,15.75
2022-10-19T23:17:06.162Z,15.74
2022-10-19T23:19:33.579Z,15.75
2022-10-19T23:22:00.989Z,15.73
2022-10-19T23:24:28.432Z,15.76
2022-10-19T23:26:55.844Z,15.73
2022-10-19T23:29:23.254Z,15.73
2022-10-19T23:31:50.664Z,15.70
2022-10-19T23:34:19.657Z,15.72
2022-10-19T23:36:47.056Z,15.70
2022-10-19T23:39:14.496Z,15.68
2022-10-19T23:41:41.934Z,15.65
2022-10-19T23:44:10.132Z,15.32
2022-10-19T23:46:37.566Z,15.64
2022-10-19T23:49:05.030Z,15.64
2022-10-19T23:51:33.807Z,15.62
2022-10-19T23:54:01.266Z,15.62
2022-10-19T23:56:29.566Z,15.43
2022-10-19T23:58:57.087Z,15.25
